createdAt,value
2023-01-25T00:01:07.315Z,0.90
2023-01-25T00:03:34.488Z,0.90
2023-01-25T00:06:01.931Z,0.90
2023-01-25T00:08:28.981Z,0.70
2023-01-25T00:10:58.262Z,0.70
2023-01-25T00:13:25.975Z,0.70
2023-01-25T00:15:53.064Z,0.83
2023-01-25T00:18:20.052Z,0.80
2023-01-25T00:20:47.214Z,0.70
2023-01-25T00:23:14.110Z,0.90
2023-01-25T00:25:41.341Z,1.00
2023-01-25T00:28:08.580Z,0.80
2023-01-25T00:30:35.501Z,0.93
2023-01-25T00:33:22.845Z,0.60
2023-01-25T00:35:49.719Z,0.80
2023-01-25T00:38:34.607Z,0.70
2023-01-25T00:41:01.737Z,0.60
2023-01-25T00:43:28.653Z,0.70
2023-01-25T00:46:02.083Z,0.97
2023-01-25T00:48:30.357Z,1.03
2023-01-25T00:51:01.889Z,0.70
2023-01-25T00:53:29.085Z,1.00
2023-01-25T00:55:56.045Z,0.83
2023-01-25T00:58:23.214Z,0.83
2023-01-25T01:00:50.269Z,0.90
2023-01-25T01:03:18.539Z,0.90
2023-01-25T01:05:46.116Z,0.73
2023-01-25T01:08:15.001Z,0.80
2023-01-25T01:10:42.085Z,0.93
2023-01-25T01:13:09.029Z,0.90
2023-01-25T01:15:37.094Z,0.70
2023-01-25T01:18:04.023Z,1.00
2023-01-25T01:20:30.916Z,1.13
2023-01-25T01:22:58.196Z,1.07
2023-01-25T01:25:45.295Z,0.80
2023-01-25T01:28:33.380Z,0.83
2023-01-25T01:31:26.044Z,0.90
2023-01-25T01:34:33.105Z,0.70
2023-01-25T01:37:20.653Z,1.20
2023-01-25T01:40:07.557Z,0.73
2023-01-25T01:43:17.897Z,0.83
2023-01-25T01:46:08.365Z,0.83
2023-01-25T01:49:05.379Z,1.17
2023-01-25T01:52:02.315Z,1.40
2023-01-25T01:55:04.157Z,0.70
2023-01-25T01:58:13.929Z,0.73
2023-01-25T02:01:01.942Z,0.70
2023-01-25T02:03:50.524Z,1.13
2023-01-25T02:06:48.272Z,0.90
2023-01-25T02:09:41.296Z,0.83
2023-01-25T02:12:30.556Z,0.90
2023-01-25T02:15:17.693Z,1.20
2023-01-25T02:18:24.632Z,1.17
2023-01-25T02:21:15.748Z,0.60
2023-01-25T02:24:02.620Z,0.70
2023-01-25T02:26:49.902Z,0.73
2023-01-25T02:29:37.887Z,1.00
2023-01-25T02:32:26.277Z,1.03
2023-01-25T02:35:13.219Z,1.00
2023-01-25T02:38:00.471Z,0.70
2023-01-25T02:40:51.325Z,0.97
2023-01-25T02:43:39.269Z,0.90
2023-01-25T02:46:45.838Z,0.93
2023-01-25T02:49:33.829Z,0.80
2023-01-25T02:52:20.770Z,0.60
2023-01-25T02:55:08.105Z,0.63
2023-01-25T02:57:55.244Z,0.90
2023-01-25T03:00:42.260Z,0.80
2023-01-25T03:03:29.974Z,1.00
2023-01-25T03:06:17.092Z,1.00
2023-01-25T03:09:03.987Z,0.80
2023-01-25T03:11:52.062Z,1.00
2023-01-25T03:14:41.533Z,0.83
2023-01-25T03:17:29.961Z,0.80
2023-01-25T03:20:16.926Z,0.90
2023-01-25T03:23:04.757Z,0.80
2023-01-25T03:25:52.015Z,0.70
2023-01-25T03:28:39.269Z,0.70
2023-01-25T03:31:28.065Z,0.80
2023-01-25T03:34:16.860Z,0.67
2023-01-25T03:37:03.948Z,0.67
2023-01-25T03:39:53.351Z,0.50
2023-01-25T03:42:41.315Z,0.60
2023-01-25T03:45:29.172Z,0.50
2023-01-25T03:48:16.126Z,0.50
2023-01-25T03:51:03.697Z,0.60
2023-01-25T03:53:51.242Z,0.40
2023-01-25T03:56:38.542Z,0.80
2023-01-25T03:59:34.367Z,0.60
2023-01-25T04:02:21.492Z,0.50
2023-01-25T04:05:08.670Z,0.40
2023-01-25T04:07:56.567Z,0.60
2023-01-25T04:10:51.717Z,0.70
2023-01-25T04:13:39.809Z,0.63
2023-01-25T04:16:13.954Z,0.43
2023-01-25T04:18:58.602Z,0.70
2023-01-25T04:21:26.937Z,0.70
2023-01-25T04:23:53.849Z,0.73
2023-01-25T04:26:20.997Z,0.80
2023-01-25T04:28:53.925Z,0.90
2023-01-25T04:31:21.124Z,0.90
2023-01-25T04:33:50.596Z,0.90
2023-01-25T04:36:19.587Z,0.60
2023-01-25T04:38:46.539Z,0.80
2023-01-25T04:41:13.783Z,1.20
2023-01-25T04:43:42.020Z,0.67
2023-01-25T04:46:10.604Z,2.80
2023-01-25T04:48:37.661Z,0.73
2023-01-25T04:51:06.830Z,0.90
2023-01-25T04:53:34.761Z,0.90
2023-01-25T04:56:04.653Z,0.90
2023-01-25T04:58:35.911Z,0.73
2023-01-25T05:01:04.016Z,0.97
2023-01-25T05:03:31.963Z,0.70
2023-01-25T05:05:58.923Z,0.80
2023-01-25T05:08:26.879Z,0.93
2023-01-25T05:10:59.011Z,0.80
2023-01-25T05:13:25.979Z,0.90
2023-01-25T05:16:06.268Z,0.90
2023-01-25T05:18:47.575Z,0.70
2023-01-25T05:21:38.095Z,1.00
2023-01-25T05:24:05.438Z,0.80
2023-01-25T05:26:52.448Z,0.80
2023-01-25T05:29:19.601Z,0.60
2023-01-25T05:31:52.902Z,1.20
2023-01-25T05:34:19.962Z,0.90
2023-01-25T05:36:47.139Z,0.80
2023-01-25T05:39:14.373Z,0.80
2023-01-25T05:42:01.237Z,0.90
2023-01-25T05:44:48.258Z,0.90
2023-01-25T05:47:38.070Z,1.47
2023-01-25T05:50:26.215Z,0.90
2023-01-25T05:53:26.456Z,1.20
2023-01-25T05:56:13.668Z,0.90
2023-01-25T05:59:00.877Z,0.90
2023-01-25T06:01:48.361Z,1.03
2023-01-25T06:04:36.744Z,1.10
2023-01-25T06:07:24.779Z,0.90
2023-01-25T06:10:12.112Z,0.87
2023-01-25T06:12:59.070Z,0.80
2023-01-25T06:15:46.410Z,0.90
2023-01-25T06:18:54.169Z,1.00
2023-01-25T06:21:51.997Z,0.90
2023-01-25T06:24:38.808Z,0.90
2023-01-25T06:27:25.809Z,1.00
2023-01-25T06:30:12.593Z,1.10
2023-01-25T06:32:59.877Z,0.80
2023-01-25T06:35:47.786Z,0.70
2023-01-25T06:38:34.848Z,0.90
2023-01-25T06:41:23.603Z,0.80
2023-01-25T06:44:11.473Z,0.90
2023-01-25T06:46:58.425Z,0.77
2023-01-25T06:49:45.259Z,0.70
2023-01-25T06:52:32.244Z,0.60
2023-01-25T06:55:19.112Z,0.50
2023-01-25T06:58:05.995Z,0.60
2023-01-25T07:00:53.787Z,0.60
2023-01-25T07:03:40.736Z,0.50
2023-01-25T07:06:30.006Z,0.50
2023-01-25T07:09:29.076Z,0.60
2023-01-25T07:12:16.011Z,0.67
2023-01-25T07:15:02.974Z,0.50
2023-01-25T07:17:49.913Z,0.73
2023-01-25T07:20:37.095Z,0.70
2023-01-25T07:23:24.082Z,0.70
2023-01-25T07:26:10.972Z,0.70
2023-01-25T07:28:57.910Z,0.60
2023-01-25T07:31:45.646Z,0.40
2023-01-25T07:34:33.120Z,0.60
2023-01-25T07:37:19.990Z,0.60
2023-01-25T07:40:06.891Z,0.70
2023-01-25T07:42:33.901Z,0.87
2023-01-25T07:45:12.242Z,0.50
2023-01-25T07:47:39.429Z,0.70
2023-01-25T07:50:06.822Z,0.60
2023-01-25T07:52:33.738Z,0.50
2023-01-25T07:55:00.732Z,0.60
2023-01-25T07:57:28.778Z,0.50
2023-01-25T07:59:55.738Z,0.60
2023-01-25T08:02:22.772Z,0.57
2023-01-25T08:04:51.322Z,0.50
2023-01-25T08:07:38.213Z,0.50
2023-01-25T08:10:25.707Z,0.50
2023-01-25T08:13:12.722Z,0.50
2023-01-25T08:15:59.699Z,0.60
2023-01-25T08:18:46.805Z,0.40
2023-01-25T08:21:33.790Z,0.57
2023-01-25T08:24:04.015Z,0.63
2023-01-25T08:26:51.251Z,0.80
2023-01-25T08:29:38.231Z,0.50
2023-01-25T08:32:25.176Z,0.50
2023-01-25T08:35:12.315Z,0.60
2023-01-25T08:37:59.288Z,0.60
2023-01-25T08:40:46.237Z,0.40
2023-01-25T08:43:33.876Z,0.57
2023-01-25T08:46:16.884Z,0.33
2023-01-25T08:48:44.023Z,0.60
2023-01-25T08:51:16.696Z,0.60
2023-01-25T08:53:44.421Z,0.53
2023-01-25T08:56:14.165Z,0.50
2023-01-25T08:58:43.488Z,0.40
2023-01-25T09:01:12.822Z,0.60
2023-01-25T09:03:48.184Z,0.47
2023-01-25T09:06:16.389Z,0.60
2023-01-25T09:08:44.165Z,0.40
2023-01-25T09:11:14.099Z,0.40
2023-01-25T09:13:44.580Z,0.60
2023-01-25T09:16:22.850Z,0.40
2023-01-25T09:18:50.943Z,0.60
2023-01-25T09:21:18.757Z,0.50
2023-01-25T09:23:57.464Z,0.57
2023-01-25T09:26:32.389Z,0.30
2023-01-25T09:29:19.644Z,0.40
2023-01-25T09:31:46.666Z,0.20
2023-01-25T09:34:53.835Z,0.30
2023-01-25T09:37:20.743Z,0.40
2023-01-25T09:40:08.002Z,0.40
2023-01-25T09:43:07.373Z,0.40
2023-01-25T09:45:56.449Z,0.50
2023-01-25T09:48:37.947Z,0.60
2023-01-25T09:51:36.807Z,0.50
2023-01-25T09:54:24.510Z,0.57
2023-01-25T09:56:52.076Z,0.40
2023-01-25T09:59:26.385Z,0.40
2023-01-25T10:02:24.382Z,0.40
2023-01-25T10:04:54.591Z,0.30
2023-01-25T10:07:50.358Z,0.40
2023-01-25T10:10:42.429Z,0.47
2023-01-25T10:13:15.976Z,0.40
2023-01-25T10:16:06.492Z,0.27
2023-01-25T10:19:21.618Z,0.60
2023-01-25T10:22:16.924Z,0.50
2023-01-25T10:25:17.400Z,0.37
2023-01-25T10:28:00.898Z,0.33
2023-01-25T10:30:49.940Z,0.40
2023-01-25T10:33:20.317Z,0.37
2023-01-25T10:35:49.785Z,0.30
2023-01-25T10:38:30.362Z,0.30
2023-01-25T10:41:16.815Z,0.40
2023-01-25T10:43:43.946Z,0.43
2023-01-25T10:46:21.898Z,0.30
2023-01-25T10:49:08.978Z,0.37
2023-01-25T10:51:55.863Z,0.30
2023-01-25T10:54:32.096Z,0.50
2023-01-25T10:56:59.046Z,0.30
2023-01-25T10:59:28.953Z,0.30
2023-01-25T11:01:56.097Z,0.40
2023-01-25T11:04:29.704Z,0.47
2023-01-25T11:06:57.198Z,0.30
2023-01-25T11:09:31.797Z,0.40
2023-01-25T11:12:21.401Z,0.50
2023-01-25T11:14:49.921Z,0.30
2023-01-25T11:17:26.243Z,0.40
2023-01-25T11:20:16.197Z,0.30
2023-01-25T11:22:51.169Z,0.40
2023-01-25T11:25:30.629Z,0.40
2023-01-25T11:28:16.511Z,0.20
2023-01-25T11:30:44.112Z,0.20
2023-01-25T11:33:12.831Z,0.40
2023-01-25T11:36:05.449Z,0.20
2023-01-25T11:38:32.541Z,0.40
2023-01-25T11:41:21.905Z,0.30
2023-01-25T11:44:10.452Z,0.30
2023-01-25T11:47:16.784Z,0.20
2023-01-25T11:50:33.537Z,0.40
2023-01-25T11:53:19.237Z,0.20
2023-01-25T11:56:06.097Z,0.30
2023-01-25T11:58:40.385Z,0.20
2023-01-25T12:01:17.377Z,0.30
2023-01-25T12:04:06.091Z,0.20
2023-01-25T12:06:38.971Z,0.20
2023-01-25T12:10:07.896Z,0.40
2023-01-25T12:12:47.052Z,0.20
2023-01-25T12:15:47.129Z,0.30
2023-01-25T12:18:32.262Z,0.27
2023-01-25T12:21:13.385Z,0.40
2023-01-25T12:24:01.658Z,0.20
2023-01-25T12:26:30.519Z,0.20
2023-01-25T12:29:09.473Z,0.30
2023-01-25T12:31:36.507Z,0.27
2023-01-25T12:34:09.286Z,0.20
2023-01-25T12:36:40.785Z,0.50
2023-01-25T12:39:25.544Z,0.20
2023-01-25T12:41:59.646Z,0.20
2023-01-25T12:44:52.687Z,0.30
2023-01-25T12:47:44.047Z,0.30
2023-01-25T12:50:18.805Z,0.20
2023-01-25T12:52:49.591Z,0.30
2023-01-25T12:55:18.010Z,0.20
2023-01-25T12:57:53.823Z,0.13
2023-01-25T13:00:31.244Z,0.17
2023-01-25T13:03:36.577Z,0.20
2023-01-25T13:06:22.222Z,0.30
2023-01-25T13:09:21.269Z,0.20
2023-01-25T13:11:49.400Z,0.20
2023-01-25T13:14:16.242Z,0.27
2023-01-25T13:17:01.445Z,0.30
2023-01-25T13:19:31.850Z,0.20
2023-01-25T13:22:00.276Z,0.20
2023-01-25T13:24:28.361Z,0.23
2023-01-25T13:26:55.414Z,0.23
2023-01-25T13:29:49.352Z,0.20
2023-01-25T13:32:25.508Z,0.13
2023-01-25T13:34:52.531Z,0.20
2023-01-25T13:37:22.954Z,0.20
2023-01-25T13:39:51.239Z,0.20
2023-01-25T13:42:24.300Z,0.20
2023-01-25T13:44:57.293Z,0.20
2023-01-25T13:47:28.507Z,0.37
2023-01-25T13:50:21.710Z,0.30
2023-01-25T13:52:57.714Z,0.30
2023-01-25T13:55:25.411Z,0.20
2023-01-25T13:57:54.560Z,0.20
2023-01-25T14:00:41.971Z,0.40
2023-01-25T14:03:29.016Z,0.30
2023-01-25T14:06:18.199Z,0.20
2023-01-25T14:09:07.009Z,0.20
2023-01-25T14:11:57.028Z,0.10
2023-01-25T14:14:54.550Z,0.27
2023-01-25T14:17:43.862Z,0.30
2023-01-25T14:20:39.613Z,0.30
2023-01-25T14:23:39.957Z,0.10
2023-01-25T14:26:40.749Z,0.40
2023-01-25T14:32:26.266Z,0.23
2023-01-25T14:35:13.369Z,0.30
2023-01-25T14:38:02.685Z,0.30
2023-01-25T14:40:51.461Z,0.50
2023-01-25T14:43:39.332Z,0.50
2023-01-25T14:46:45.425Z,0.20
2023-01-25T14:49:39.811Z,0.80
2023-01-25T14:52:32.292Z,0.50
2023-01-25T14:55:20.371Z,0.40
2023-01-25T14:58:09.784Z,0.13
2023-01-25T15:00:57.022Z,0.30
2023-01-25T15:03:44.714Z,0.30
2023-01-25T15:06:33.712Z,0.40
2023-01-25T15:09:20.679Z,0.23
2023-01-25T15:12:07.795Z,0.20
2023-01-25T15:15:07.965Z,0.10
2023-01-25T15:18:00.817Z,0.30
2023-01-25T15:20:50.942Z,0.10
2023-01-25T15:23:49.285Z,0.30
2023-01-25T15:26:40.186Z,0.17
2023-01-25T15:29:38.781Z,0.20
2023-01-25T15:32:38.610Z,0.20
2023-01-25T15:35:26.096Z,0.07
2023-01-25T15:38:13.225Z,0.10
2023-01-25T15:41:00.572Z,0.10
2023-01-25T15:43:47.546Z,0.17
2023-01-25T15:46:39.139Z,0.20
2023-01-25T15:49:27.205Z,0.20
2023-01-25T15:52:14.807Z,0.20
2023-01-25T15:55:02.455Z,0.20
2023-01-25T15:57:54.557Z,0.30
2023-01-25T16:00:41.926Z,0.30
2023-01-25T16:03:29.005Z,0.03
2023-01-25T16:06:40.349Z,0.20
2023-01-25T16:09:40.734Z,0.13
2023-01-25T16:12:29.057Z,0.20
2023-01-25T16:15:16.084Z,0.30
2023-01-25T16:18:03.119Z,0.37
2023-01-25T16:20:50.214Z,0.30
2023-01-25T16:23:37.240Z,0.47
2023-01-25T16:26:24.739Z,0.40
2023-01-25T16:29:11.829Z,0.50
2023-01-25T16:31:58.840Z,0.40
2023-01-25T16:34:45.974Z,0.40
2023-01-25T16:37:37.092Z,0.70
2023-01-25T16:40:25.096Z,0.50
2023-01-25T16:43:12.543Z,0.50
2023-01-25T16:45:59.585Z,0.50
2023-01-25T16:48:46.572Z,0.57
2023-01-25T16:51:37.605Z,0.33
2023-01-25T16:54:24.495Z,0.40
2023-01-25T16:57:20.395Z,0.53
2023-01-25T17:00:08.070Z,0.47
2023-01-25T17:02:59.590Z,0.80
2023-01-25T17:05:48.242Z,0.50
2023-01-25T17:08:35.248Z,0.67
2023-01-25T17:11:26.182Z,0.83
2023-01-25T17:14:15.290Z,0.60
2023-01-25T17:17:02.544Z,0.70
2023-01-25T17:19:51.902Z,0.60
2023-01-25T17:22:38.750Z,0.50
2023-01-25T17:25:25.910Z,0.53
2023-01-25T17:28:12.804Z,0.70
2023-01-25T17:31:02.931Z,0.80
2023-01-25T17:33:50.296Z,0.60
2023-01-25T17:36:37.658Z,0.50
2023-01-25T17:39:26.322Z,0.70
2023-01-25T17:42:13.248Z,0.43
2023-01-25T17:45:00.118Z,0.30
2023-01-25T17:47:47.059Z,0.30
2023-01-25T17:50:33.991Z,0.40
2023-01-25T17:53:21.072Z,0.50
2023-01-25T17:56:08.005Z,0.50
2023-01-25T17:58:56.478Z,0.70
2023-01-25T18:01:48.498Z,0.60
2023-01-25T18:04:35.449Z,0.60
2023-01-25T18:07:22.367Z,0.63
2023-01-25T18:10:09.675Z,0.80
2023-01-25T18:13:04.638Z,0.83
2023-01-25T18:15:52.733Z,0.90
2023-01-25T18:18:39.677Z,1.90
2023-01-25T18:21:32.737Z,1.20
2023-01-25T18:24:23.479Z,0.83
2023-01-25T18:27:11.331Z,0.43
2023-01-25T18:30:04.348Z,0.30
2023-01-25T18:32:51.718Z,0.30
2023-01-25T18:35:38.613Z,0.20
2023-01-25T18:38:25.489Z,0.20
2023-01-25T18:41:12.752Z,0.20
2023-01-25T18:43:59.750Z,0.33
2023-01-25T18:46:46.764Z,0.30
2023-01-25T18:49:34.227Z,0.20
2023-01-25T18:52:21.195Z,0.20
2023-01-25T18:55:08.533Z,0.40
2023-01-25T18:57:55.626Z,0.30
2023-01-25T19:00:42.626Z,0.40
2023-01-25T19:03:29.643Z,0.30
2023-01-25T19:06:18.199Z,0.40
2023-01-25T19:09:05.168Z,0.30
2023-01-25T19:11:52.018Z,0.20
2023-01-25T19:14:38.951Z,0.10
2023-01-25T19:17:25.822Z,0.30
2023-01-25T19:20:12.685Z,0.20
2023-01-25T19:22:59.810Z,0.10
2023-01-25T19:25:46.677Z,0.20
2023-01-25T19:28:33.621Z,0.30
2023-01-25T19:31:28.376Z,0.50
2023-01-25T19:34:18.112Z,0.20
2023-01-25T19:37:11.567Z,0.40
2023-01-25T19:39:58.494Z,0.23
2023-01-25T19:42:45.386Z,0.10
2023-01-25T19:45:32.263Z,0.10
2023-01-25T19:48:19.207Z,0.20
2023-01-25T19:51:06.617Z,0.07
2023-01-25T19:53:53.661Z,0.10
2023-01-25T19:56:40.941Z,0.30
2023-01-25T19:59:31.836Z,0.10
2023-01-25T20:02:19.059Z,0.20
2023-01-25T20:05:05.962Z,0.23
2023-01-25T20:07:52.949Z,0.30
2023-01-25T20:10:39.801Z,0.20
2023-01-25T20:13:26.868Z,0.37
2023-01-25T20:16:14.357Z,0.10
2023-01-25T20:19:01.420Z,0.40
2023-01-25T20:21:49.455Z,0.20
2023-01-25T20:24:36.509Z,0.20
2023-01-25T20:27:23.649Z,0.20
2023-01-25T20:30:10.528Z,0.87
2023-01-25T20:32:57.447Z,0.30
2023-01-25T20:35:44.386Z,0.17
2023-01-25T20:38:31.813Z,0.20
2023-01-25T20:41:20.169Z,0.30
2023-01-25T20:44:15.553Z,0.10
2023-01-25T20:47:03.351Z,0.10
2023-01-25T20:49:50.215Z,0.10
2023-01-25T20:52:37.111Z,0.10
2023-01-25T20:55:24.144Z,0.20
2023-01-25T20:58:11.100Z,0.17
2023-01-25T21:00:58.179Z,0.10
2023-01-25T21:03:45.490Z,0.27
2023-01-25T21:06:32.959Z,0.30
2023-01-25T21:09:19.823Z,0.30
2023-01-25T21:12:06.820Z,0.23
2023-01-25T21:14:53.773Z,0.30
2023-01-25T21:17:40.681Z,0.40
2023-01-25T21:20:28.507Z,0.10
2023-01-25T21:23:15.356Z,0.10
2023-01-25T21:26:02.388Z,0.10
2023-01-25T21:28:49.792Z,0.20
2023-01-25T21:31:42.762Z,0.20
2023-01-25T21:34:30.161Z,0.10
2023-01-25T21:37:17.210Z,0.00
2023-01-25T21:40:04.075Z,0.10
2023-01-25T21:42:51.522Z,0.00
2023-01-25T21:45:38.571Z,0.17
2023-01-25T21:48:25.978Z,0.10
2023-01-25T21:51:11.865Z,0.00
2023-01-25T21:53:58.747Z,0.10
2023-01-25T21:56:45.706Z,0.10
2023-01-25T21:59:33.537Z,0.20
2023-01-25T22:02:20.612Z,0.00
2023-01-25T22:05:07.522Z,0.10
2023-01-25T22:07:54.401Z,0.10
2023-01-25T22:10:41.452Z,0.10
2023-01-25T22:13:28.325Z,0.10
2023-01-25T22:16:19.445Z,0.20
2023-01-25T22:19:06.421Z,0.20
2023-01-25T22:21:53.498Z,0.10
2023-01-25T22:24:40.465Z,0.00
2023-01-25T22:27:46.310Z,0.10
2023-01-25T22:30:33.424Z,0.00
2023-01-25T22:33:20.503Z,0.10
2023-01-25T22:36:07.442Z,0.00
2023-01-25T22:38:54.472Z,0.00
2023-01-25T22:41:44.321Z,0.03
2023-01-25T22:44:31.461Z,0.07
2023-01-25T22:47:18.685Z,0.00
2023-01-25T22:50:05.692Z,0.00
2023-01-25T22:52:52.692Z,0.10
2023-01-25T22:55:39.761Z,0.00
2023-01-25T22:58:26.816Z,0.03
2023-01-25T23:01:13.908Z,0.00
2023-01-25T23:04:01.188Z,0.00
2023-01-25T23:06:50.958Z,0.00
2023-01-25T23:09:37.976Z,0.00
2023-01-25T23:12:25.171Z,0.00
2023-01-25T23:15:12.086Z,0.00
2023-01-25T23:17:57.731Z,0.00
2023-01-25T23:20:44.785Z,0.00
2023-01-25T23:23:31.706Z,0.00
2023-01-25T23:26:21.768Z,0.10
2023-01-25T23:29:13.336Z,0.00
2023-01-25T23:32:00.654Z,0.00
2023-01-25T23:34:47.750Z,0.00
2023-01-25T23:37:34.764Z,0.00
2023-01-25T23:40:21.567Z,0.00
2023-01-25T23:43:08.551Z,0.00
2023-01-25T23:45:55.394Z,0.00
2023-01-25T23:48:42.437Z,0.00
2023-01-25T23:51:29.840Z,0.00
2023-01-25T23:54:16.860Z,0.00
2023-01-25T23:57:03.672Z,0.00
2023-01-25T23:59:50.743Z,0.00
